Forest City, IA

8:13 AM CDT on July 20, 2017 (GMT -0500)
Forest City Municipal

Weather History for KFXY - April, 2014

Change the Weather History Date:

Saturday, April 12, 2014

  Actual Average Record
Temperature  
Mean Temperature 60 °F -  
Max Temperature 75 °F 54 °F 75 °F (2014)
Min Temperature 46 °F 33 °F 17 °F (2016)
Degree Days  
Heating Degree Days 4    
Growing Degree Days 10 (Base 50)    
Moisture  
Dew Point 46 °F    
Average Humidity 67    
Maximum Humidity 100    
Minimum Humidity 44    
Precipitation  
Precipitation 0.02 in - - ()
Sea Level Pressure  
Sea Level Pressure 29.68 in    
Wind  
Wind Speed 11 mph (ESE)    
Max Wind Speed 21 mph    
Max Gust Speed 26 mph    
Visibility 10 miles    
Events Rain    
Averages and records for this station are not official NWS values.
T = Trace of Precipitation, MM = Missing Value Source: NWS Daily Summary

Daily Weather History Graph

Daily Weather History Graph

Search for Another Location

Airport or City:

Trip Planner

Search our weather history database for the weather conditions in past years. The results will help you decide how hot, cold, wet, or windy it might be!

Date:

Astronomy

Apr. 12, 2014 Rise Set
Actual Time 6:37 AM CDT 7:53 PM CDT
Civil Twilight 6:07 AM CDT 8:23 PM CDT
Nautical Twilight 5:32 AM CDT 8:58 PM CDT
Astronomical Twilight 4:55 AM CDT 9:36 PM CDT
Moon 5:29 PM CDT (4/12) 5:08 AM CDT (4/12)
Length of Visible Light 14h 15m
Length of Day
13h 16m
Waxing Gibbous, 93% of the Moon is Illuminated
Apr 12
Waxing Gibbous
Apr 15
Full
Apr 22
Last Quarter
Apr 29
New
May 6
First Quarter

Hourly Weather History & Observations

Time (CDT) Temp. Windchill Dew Point Humidity Pressure Visibility Wind Dir Wind Speed Gust Speed Precip Events Conditions
12:15 AM 51.8 °F - 37.4 °F 58% 29.89 in 10.0 mi East 6.9 mph - N/A   Mostly Cloudy
12:35 AM 51.8 °F - 37.4 °F 58% 29.88 in 10.0 mi ESE 6.9 mph - N/A   Mostly Cloudy
12:55 AM 51.8 °F - 37.4 °F 58% 29.87 in 10.0 mi ESE 10.4 mph - N/A   Mostly Cloudy
1:15 AM 51.8 °F - 35.6 °F 54% 29.87 in 10.0 mi ESE 12.7 mph - N/A   Mostly Cloudy
1:35 AM 51.8 °F - 35.6 °F 54% 29.86 in 10.0 mi ESE 9.2 mph 17.3 mph N/A   Scattered Clouds
1:55 AM 51.8 °F - 35.6 °F 54% 29.84 in 10.0 mi ESE 13.8 mph - N/A   Clear
2:15 AM 51.8 °F - 35.6 °F 54% 29.83 in 10.0 mi East 12.7 mph - N/A   Scattered Clouds
2:35 AM 51.8 °F - 35.6 °F 54% 29.82 in 10.0 mi ESE 10.4 mph - N/A   Mostly Cloudy
2:55 AM 50.0 °F - 35.6 °F 58% 29.80 in 10.0 mi ESE 12.7 mph - N/A   Overcast
3:15 AM 50.0 °F - 35.6 °F 58% 29.81 in 10.0 mi ESE 8.1 mph - N/A   Overcast
3:35 AM 50.0 °F - 35.6 °F 58% 29.82 in 10.0 mi ESE 6.9 mph - N/A Rain Light Rain
3:55 AM 50.0 °F - 37.4 °F 62% 29.82 in 10.0 mi NNW 3.5 mph - N/A Rain Light Rain
4:15 AM 48.2 °F - 39.2 °F 71% 29.81 in 10.0 mi SE 8.1 mph - N/A Rain Light Rain
4:35 AM 48.2 °F - 39.2 °F 71% 29.81 in 10.0 mi SSE 6.9 mph - N/A   Overcast
4:55 AM 50.0 °F - 41.0 °F 71% 29.80 in 10.0 mi SSE 11.5 mph - N/A Rain Light Rain
5:15 AM 48.2 °F - 42.8 °F 82% 29.78 in 10.0 mi SSE 15.0 mph - 0.02 in Rain Rain
5:35 AM 48.2 °F - 42.8 °F 82% 29.77 in 10.0 mi SSE 12.7 mph - 0.02 in   Overcast
5:55 AM 50.0 °F - 42.8 °F 76% 29.74 in 10.0 mi SSE 15.0 mph - 0.02 in   Mostly Cloudy
6:15 AM 50.0 °F - 42.8 °F 76% 29.72 in 10.0 mi SE 12.7 mph - N/A   Overcast
6:35 AM 50.0 °F - 42.8 °F 76% 29.72 in 10.0 mi SE 11.5 mph - N/A   Overcast
6:55 AM 51.8 °F - 41.0 °F 67% 29.71 in 10.0 mi SE 15.0 mph 19.6 mph N/A   Overcast
7:15 AM 50.0 °F - 41.0 °F 71% 29.70 in 10.0 mi SE 13.8 mph - N/A   Overcast
7:55 AM 51.8 °F - 41.0 °F 67% 29.69 in 10.0 mi SSE 15.0 mph 21.9 mph N/A   Scattered Clouds
8:15 AM 51.8 °F - 41.0 °F 67% 29.67 in 10.0 mi SSE 16.1 mph - N/A   Clear
8:35 AM 53.6 °F - 42.8 °F 67% 29.67 in 10.0 mi SSE 16.1 mph 20.7 mph N/A   Scattered Clouds
8:55 AM 53.6 °F - 42.8 °F 67% 29.66 in 10.0 mi SSE 15.0 mph 19.6 mph N/A   Overcast
9:15 AM 55.4 °F - 44.6 °F 67% 29.65 in 10.0 mi South 13.8 mph 20.7 mph N/A   Overcast
9:35 AM 57.2 °F - 46.4 °F 67% 29.64 in 10.0 mi South 16.1 mph - N/A   Overcast
9:55 AM 59.0 °F - 46.4 °F 63% 29.65 in 10.0 mi South 11.5 mph 17.3 mph N/A   Overcast
10:15 AM 60.8 °F - 48.2 °F 63% 29.65 in 10.0 mi South 17.3 mph 23.0 mph N/A   Mostly Cloudy
10:35 AM 62.6 °F - 50.0 °F 63% 29.65 in 10.0 mi South 17.3 mph 23.0 mph N/A   Clear
10:55 AM 62.6 °F - 50.0 °F 63% 29.65 in 10.0 mi SSW 18.4 mph 24.2 mph N/A   Clear
11:15 AM 68.0 °F - 51.8 °F 56% 29.65 in 10.0 mi SSW 18.4 mph 24.2 mph N/A   Clear
11:35 AM 69.8 °F - 53.6 °F 56% 29.65 in 10.0 mi SSW 20.7 mph - N/A   Clear
11:55 AM 69.8 °F - 51.8 °F 53% 29.65 in 10.0 mi SW 16.1 mph 26.5 mph N/A   Clear
12:15 PM 71.6 °F - 53.6 °F 53% 29.64 in 10.0 mi SW 17.3 mph 26.5 mph N/A   Clear
12:35 PM 71.6 °F - 51.8 °F 50% 29.64 in 10.0 mi WSW 12.7 mph 20.7 mph N/A   Scattered Clouds
12:55 PM 71.6 °F - 51.8 °F 50% 29.64 in 10.0 mi WSW 11.5 mph 16.1 mph N/A   Scattered Clouds
1:15 PM 73.4 °F - 51.8 °F 47% 29.63 in 10.0 mi SW 8.1 mph 17.3 mph N/A   Mostly Cloudy
1:35 PM 73.4 °F - 53.6 °F 50% 29.62 in 10.0 mi SW 4.6 mph - N/A   Mostly Cloudy
1:55 PM 75.2 °F - 51.8 °F 44% 29.61 in 10.0 mi WSW 6.9 mph - N/A   Mostly Cloudy
2:15 PM 75.2 °F - 51.8 °F 44% 29.61 in 10.0 mi WSW 9.2 mph - N/A   Overcast
2:35 PM 75.2 °F - 51.8 °F 44% 29.60 in 10.0 mi SW 6.9 mph - N/A   Mostly Cloudy
2:55 PM 68.0 °F - 53.6 °F 60% 29.61 in 10.0 mi NE 9.2 mph 12.7 mph N/A   Scattered Clouds
3:15 PM 69.8 °F - 53.6 °F 56% 29.60 in 10.0 mi NE 10.4 mph 18.4 mph N/A   Scattered Clouds
3:35 PM 69.8 °F - 53.6 °F 56% 29.60 in 10.0 mi NE 13.8 mph - N/A   Clear
3:55 PM 64.4 °F - 51.8 °F 64% 29.60 in 10.0 mi NE 10.4 mph 17.3 mph N/A   Clear
4:15 PM 64.4 °F - 51.8 °F 64% 29.59 in 10.0 mi NE 10.4 mph - N/A   Clear
4:35 PM 64.4 °F - 51.8 °F 64% 29.60 in 10.0 mi NE 10.4 mph - N/A   Clear
4:55 PM 64.4 °F - 51.8 °F 64% 29.58 in 10.0 mi NE 10.4 mph - N/A   Clear
5:15 PM 62.6 °F - 51.8 °F 68% 29.60 in 10.0 mi ENE 10.4 mph - N/A   Clear
5:35 PM 62.6 °F - 51.8 °F 68% 29.60 in 10.0 mi NE 9.2 mph - N/A   Clear
5:55 PM 62.6 °F - 51.8 °F 68% 29.60 in 10.0 mi ENE 8.1 mph - N/A   Clear
6:15 PM 60.8 °F - 51.8 °F 72% 29.60 in 10.0 mi East 10.4 mph - N/A   Clear
6:35 PM 60.8 °F - 51.8 °F 72% 29.61 in 10.0 mi ENE 9.2 mph - N/A   Clear
6:55 PM 59.0 °F - 50.0 °F 72% 29.61 in 10.0 mi ENE 8.1 mph - N/A   Clear
7:15 PM 59.0 °F - 50.0 °F 72% 29.62 in 10.0 mi NE 9.2 mph - N/A   Clear
7:35 PM 57.2 °F - 50.0 °F 77% 29.63 in 10.0 mi NE 8.1 mph - N/A   Clear
7:55 PM 55.4 °F - 50.0 °F 82% 29.62 in 10.0 mi NNE 11.5 mph 18.4 mph N/A   Clear
8:15 PM 55.4 °F - 51.8 °F 88% 29.60 in 10.0 mi NNE 15.0 mph 19.6 mph N/A   Scattered Clouds
8:35 PM 55.4 °F - 50.0 °F 82% 29.63 in 10.0 mi NE 10.4 mph 17.3 mph N/A   Scattered Clouds
8:55 PM 53.6 °F - 50.0 °F 88% 29.63 in 10.0 mi NE 13.8 mph - N/A   Overcast
9:15 PM 51.8 °F - 48.2 °F 88% 29.64 in 10.0 mi ENE 9.2 mph - N/A   Overcast
9:35 PM 51.8 °F - 46.4 °F 82% 29.62 in 10.0 mi NE 13.8 mph - N/A   Scattered Clouds
9:55 PM 50.0 °F - 46.4 °F 87% 29.63 in 10.0 mi NE 12.7 mph - N/A   Scattered Clouds
10:15 PM 50.0 °F - 46.4 °F 87% 29.63 in 10.0 mi NNE 10.4 mph - N/A   Mostly Cloudy
10:35 PM 48.2 °F - 46.4 °F 93% 29.60 in 10.0 mi NNE 15.0 mph - N/A   Mostly Cloudy
10:55 PM 48.2 °F - 46.4 °F 93% 29.63 in 10.0 mi NNE 13.8 mph 19.6 mph N/A   Mostly Cloudy
11:15 PM 46.4 °F 40.1 °F 46.4 °F 100% 29.63 in 7.0 mi NNE 15.0 mph 18.4 mph N/A   Overcast
11:35 PM 46.4 °F 41.1 °F 46.4 °F 100% 29.65 in 7.0 mi NNE 11.5 mph 17.3 mph N/A   Overcast
11:55 PM 46.4 °F 41.5 °F 46.4 °F 100% 29.67 in 7.0 mi NE 10.4 mph - N/A   Overcast